Time;durP1;ratioP1;P1;durP2;ratioP2;P2;SDS_P1;SDS_P2;PMS_P1;PMS_P2;Temp;Humidity;BMP_temperature;BMP_pressure;BME280_temperature;BME280_humidity;BME280_pressure;Samples;Min_cycle;Max_cycle;Signal;HPM_P1;HPM_P2
2022/12/07 00:01:48;;;;;;;1.60;1.30;;;5.40;98.20;;;;;;5019053;28;20505;-77
2022/12/07 00:04:17;;;;;;;1.70;1.40;;;5.30;98.20;;;;;;5027864;28;20983;-77
2022/12/07 00:06:51;;;;;;;4.27;3.97;;;5.30;98.20;;;;;;5017488;28;20495;-77
2022/12/07 00:09:20;;;;;;;1.70;1.43;;;5.30;98.20;;;;;;5028838;28;20463;-77
2022/12/07 00:11:51;;;;;;;1.70;1.60;;;5.30;98.20;;;;;;5020136;28;20487;-77
2022/12/07 00:14:18;;;;;;;1.70;1.40;;;5.30;98.20;;;;;;5027053;28;20459;-77
2022/12/07 00:16:46;;;;;;;1.67;1.30;;;5.30;98.20;;;;;;5016643;28;21015;-77
2022/12/07 00:19:14;;;;;;;1.70;1.40;;;5.30;98.20;;;;;;5027837;28;20463;-77
2022/12/07 00:21:44;;;;;;;1.63;1.30;;;5.30;98.20;;;;;;5016678;28;20471;-77
2022/12/07 00:24:13;;;;;;;1.67;1.40;;;5.30;98.20;;;;;;5026814;28;21037;-77
2022/12/07 00:26:45;;;;;;;2.00;1.80;;;5.30;98.20;;;;;;5016489;28;20491;-78
2022/12/07 00:29:17;;;;;;;1.60;1.30;;;5.30;98.20;;;;;;5022414;28;20455;-77
2022/12/07 00:31:45;;;;;;;1.70;1.30;;;5.30;98.20;;;;;;5018754;28;21019;-77
2022/12/07 00:34:15;;;;;;;1.60;1.30;;;5.30;98.20;;;;;;5027418;28;20979;-77
2022/12/07 00:36:45;;;;;;;1.63;1.30;;;5.30;98.20;;;;;;5015275;28;20483;-77
2022/12/07 00:39:14;;;;;;;1.60;1.30;;;5.30;98.20;;;;;;5026268;28;20992;-77
2022/12/07 00:41:42;;;;;;;1.67;1.40;;;5.30;98.20;;;;;;5016499;28;21192;-77
2022/12/07 00:44:08;;;;;;;1.63;1.30;;;5.30;98.20;;;;;;5022893;28;20513;-77
2022/12/07 00:46:36;;;;;;;1.60;1.30;;;5.30;98.20;;;;;;5018334;28;20867;-77
2022/12/07 00:49:02;;;;;;;1.70;1.40;;;5.30;98.20;;;;;;5027121;28;20982;-77
2022/12/07 00:51:29;;;;;;;1.60;1.30;;;5.30;98.20;;;;;;5019647;28;20525;-77
2022/12/07 00:53:56;;;;;;;1.70;1.40;;;5.30;98.20;;;;;;5026256;28;20459;-77
2022/12/07 00:56:27;;;;;;;1.60;1.30;;;5.30;98.20;;;;;;5017912;28;20969;-77
2022/12/07 00:58:57;;;;;;;1.67;1.40;;;5.30;98.20;;;;;;5026394;28;20497;-77
2022/12/07 01:01:26;;;;;;;1.70;1.40;;;5.30;98.20;;;;;;5019753;28;20575;-77
2022/12/07 01:03:55;;;;;;;1.60;1.40;;;5.30;98.20;;;;;;5026306;28;20475;-77
2022/12/07 01:06:24;;;;;;;1.70;1.50;;;5.30;98.20;;;;;;5019095;28;20509;-77
2022/12/07 01:08:53;;;;;;;1.63;1.30;;;5.40;98.20;;;;;;5025450;28;20530;-77
2022/12/07 01:11:23;;;;;;;1.93;1.73;;;5.30;98.20;;;;;;5019932;28;20474;-77
2022/12/07 01:13:53;;;;;;;1.60;1.40;;;5.30;98.20;;;;;;5025558;28;20960;-77
2022/12/07 01:16:23;;;;;;;1.60;1.30;;;5.30;98.20;;;;;;5018379;28;20486;-77
2022/12/07 01:18:51;;;;;;;1.63;1.30;;;5.40;98.20;;;;;;5026281;28;20463;-77
2022/12/07 01:21:23;;;;;;;2.53;2.33;;;5.30;98.20;;;;;;5019671;28;20571;-77
2022/12/07 01:23:50;;;;;;;1.70;1.37;;;5.30;98.20;;;;;;5029435;28;20506;-79
2022/12/07 01:26:20;;;;;;;1.70;1.43;;;5.40;98.20;;;;;;5029033;28;20478;-80
2022/12/07 01:28:46;;;;;;;1.67;1.40;;;5.30;98.20;;;;;;5037184;28;20461;-80
2022/12/07 01:31:17;;;;;;;3.73;3.53;;;5.40;98.20;;;;;;5028554;28;20625;-79
2022/12/07 01:33:46;;;;;;;1.63;1.30;;;5.40;98.20;;;;;;5034979;28;20461;-79
2022/12/07 01:36:16;;;;;;;1.67;1.30;;;5.30;98.20;;;;;;5022846;28;21028;-78
2022/12/07 01:38:43;;;;;;;1.70;1.40;;;5.30;98.20;;;;;;5028475;28;20463;-78
2022/12/07 01:41:11;;;;;;;1.63;1.30;;;5.30;98.20;;;;;;5022930;28;20483;-78
2022/12/07 01:43:39;;;;;;;1.70;1.37;;;5.30;98.20;;;;;;5032534;28;20479;-78
2022/12/07 01:46:05;;;;;;;1.70;1.40;;;5.30;98.20;;;;;;5020315;28;20586;-78
2022/12/07 01:48:40;;;;;;;1.60;1.30;;;5.30;98.20;;;;;;5031994;28;20838;-78
2022/12/07 01:51:11;;;;;;;1.67;1.40;;;5.30;98.20;;;;;;5029048;28;20473;-78
2022/12/07 01:53:42;;;;;;;1.70;1.50;;;5.30;98.20;;;;;;5031146;28;20459;-77
2022/12/07 01:56:11;;;;;;;1.60;1.23;;;5.30;98.20;;;;;;5022928;28;20536;-78
2022/12/07 01:58:38;;;;;;;1.70;1.40;;;5.30;98.20;;;;;;5030774;28;20554;-78
2022/12/07 02:01:06;;;;;;;1.70;1.40;;;5.30;98.20;;;;;;5021598;28;20815;-77
2022/12/07 02:03:38;;;;;;;1.67;1.33;;;5.30;98.20;;;;;;5031473;28;20574;-77
2022/12/07 02:06:06;;;;;;;1.60;1.30;;;5.30;98.20;;;;;;5019950;28;20495;-78
2022/12/07 02:08:33;;;;;;;1.60;1.30;;;5.30;98.20;;;;;;5030018;28;20521;-77
2022/12/07 02:11:01;;;;;;;1.67;1.30;;;5.30;98.20;;;;;;5020921;28;20459;-77
2022/12/07 02:13:33;;;;;;;1.63;1.30;;;5.30;98.20;;;;;;5031981;28;20828;-77
2022/12/07 02:16:14;;;;;;;1.67;1.40;;;5.30;98.20;;;;;;5017255;28;20483;-77
2022/12/07 02:18:56;;;;;;;1.70;1.40;;;5.30;98.20;;;;;;5029651;28;20474;-77
2022/12/07 02:21:34;;;;;;;1.60;1.30;;;5.30;98.20;;;;;;5023214;28;20524;-77
2022/12/07 02:24:25;;;;;;;1.60;1.30;;;5.20;98.20;;;;;;5026702;28;20483;-77
2022/12/07 02:27:15;;;;;;;2.43;2.23;;;5.20;98.20;;;;;;5018300;28;20860;-77
2022/12/07 02:29:48;;;;;;;1.70;1.37;;;5.30;98.20;;;;;;5029235;28;20471;-77
2022/12/07 02:32:20;;;;;;;1.70;1.40;;;5.30;98.20;;;;;;5021715;28;20582;-77
2022/12/07 02:34:55;;;;;;;1.60;1.30;;;5.30;98.20;;;;;;5028683;28;20467;-77
2022/12/07 02:37:35;;;;;;;1.60;1.30;;;5.30;98.20;;;;;;5021653;28;20554;-77
2022/12/07 02:40:09;;;;;;;1.60;1.30;;;5.30;98.20;;;;;;5032200;28;20459;-79
2022/12/07 02:42:42;;;;;;;1.60;1.30;;;5.30;98.20;;;;;;5022764;28;20483;-79
2022/12/07 02:45:13;;;;;;;1.67;1.40;;;5.20;98.20;;;;;;5038651;28;20459;-77
2022/12/07 02:47:42;;;;;;;1.70;1.50;;;5.20;98.20;;;;;;5027753;28;20475;-79
2022/12/07 02:50:10;;;;;;;1.70;1.40;;;5.20;98.20;;;;;;5036861;28;20884;-78
2022/12/07 02:52:37;;;;;;;1.70;1.40;;;5.20;98.20;;;;;;5027075;28;20479;-77
2022/12/07 02:55:06;;;;;;;1.60;1.30;;;5.20;98.20;;;;;;5024458;28;20479;-78
2022/12/07 02:57:48;;;;;;;1.70;1.40;;;5.20;98.20;;;;;;5023535;28;20483;-78
2022/12/07 03:00:19;;;;;;;1.70;1.30;;;5.20;98.20;;;;;;5031890;28;20527;-77
2022/12/07 03:02:54;;;;;;;1.60;1.30;;;5.20;98.20;;;;;;5025441;28;20523;-81
2022/12/07 03:06:01;;;;;;;1.60;1.30;;;5.20;98.20;;;;;;5036284;28;20486;-82
2022/12/07 03:08:37;;;;;;;1.83;1.67;;;5.20;98.20;;;;;;5005338;28;20477;-81
2022/12/07 03:11:07;;;;;;;1.60;1.30;;;5.20;98.20;;;;;;5025938;28;20470;-77
2022/12/07 03:13:42;;;;;;;1.63;1.30;;;5.20;98.20;;;;;;5033669;28;21014;-78
2022/12/07 03:16:16;;;;;;;1.63;1.30;;;5.20;98.20;;;;;;5027829;28;20507;-77
2022/12/07 03:18:47;;;;;;;1.60;1.30;;;5.20;98.20;;;;;;5035637;28;20511;-79
2022/12/07 03:21:18;;;;;;;1.70;1.50;;;5.20;98.20;;;;;;5022773;28;20872;-79
2022/12/07 03:23:50;;;;;;;1.60;1.30;;;5.20;98.20;;;;;;5035454;28;20487;-79
2022/12/07 03:26:20;;;;;;;2.37;2.17;;;5.20;98.20;;;;;;5028536;28;20506;-80
2022/12/07 03:28:52;;;;;;;1.60;1.30;;;5.20;98.20;;;;;;5034201;28;20455;-79
2022/12/07 03:31:25;;;;;;;3.90;3.20;;;5.20;98.20;;;;;;5025853;28;20486;-78
2022/12/07 03:34:00;;;;;;;1.60;1.20;;;5.20;98.20;;;;;;5032981;28;20459;-81
2022/12/07 03:36:36;;;;;;;1.70;1.43;;;5.20;98.20;;;;;;5020458;28;20498;-77
2022/12/07 03:39:13;;;;;;;1.60;1.30;;;5.20;98.20;;;;;;5032416;28;20485;-81
2022/12/07 03:41:40;;;;;;;1.63;1.40;;;5.20;98.20;;;;;;5028079;28;20485;-77
2022/12/07 03:44:08;;;;;;;1.60;1.30;;;5.20;98.20;;;;;;5036884;28;21121;-79
2022/12/07 03:46:44;;;;;;;1.67;1.30;;;5.20;98.20;;;;;;5028925;28;20873;-78
2022/12/07 03:49:19;;;;;;;1.60;1.30;;;5.20;98.20;;;;;;5034905;28;20522;-78
2022/12/07 03:51:51;;;;;;;1.70;1.40;;;5.20;98.20;;;;;;5024434;28;20543;-81
2022/12/07 03:54:22;;;;;;;2.20;1.97;;;5.20;98.20;;;;;;5034797;28;20456;-78
2022/12/07 03:56:51;;;;;;;1.63;1.30;;;5.20;98.20;;;;;;5022447;28;20529;-82
2022/12/07 03:59:19;;;;;;;1.63;1.40;;;5.20;98.20;;;;;;5034501;28;20493;-78
2022/12/07 04:01:55;;;;;;;1.60;1.40;;;5.10;98.20;;;;;;5023567;28;20483;-79
2022/12/07 04:04:22;;;;;;;1.63;1.30;;;5.10;98.20;;;;;;5033188;28;20486;-80
2022/12/07 04:06:48;;;;;;;1.60;1.40;;;5.10;98.20;;;;;;5026450;28;20490;-77
2022/12/07 04:09:16;;;;;;;1.70;1.47;;;5.10;98.20;;;;;;5038118;28;20474;-78
2022/12/07 04:11:43;;;;;;;1.70;1.40;;;5.10;98.20;;;;;;5022532;28;20847;-83
2022/12/07 04:14:20;;;;;;;1.63;1.30;;;5.10;98.20;;;;;;5029293;28;20490;-80
2022/12/07 04:16:51;;;;;;;1.60;1.20;;;5.10;98.20;;;;;;5023561;28;21150;-78
2022/12/07 04:19:21;;;;;;;1.60;1.30;;;5.10;98.20;;;;;;5034181;28;20497;-77
2022/12/07 04:21:48;;;;;;;1.70;1.40;;;5.10;98.20;;;;;;5024276;28;20490;-79
2022/12/07 04:24:16;;;;;;;1.63;1.30;;;5.10;98.20;;;;;;5033500;28;20570;-79
2022/12/07 04:26:45;;;;;;;1.70;1.50;;;5.00;98.20;;;;;;5022328;28;20491;-79
2022/12/07 04:29:14;;;;;;;1.67;1.40;;;5.00;98.20;;;;;;5028303;28;20547;-82
2022/12/07 04:31:43;;;;;;;1.70;1.40;;;4.90;98.20;;;;;;5026884;28;20482;-77
2022/12/07 04:34:14;;;;;;;1.63;1.30;;;4.90;98.20;;;;;;5029982;28;20459;-81
2022/12/07 04:36:40;;;;;;;1.63;1.30;;;4.80;98.20;;;;;;5021688;28;20655;-77
2022/12/07 04:39:09;;;;;;;1.63;1.30;;;4.80;98.20;;;;;;5028679;28;20455;-77
2022/12/07 04:41:36;;;;;;;1.67;1.30;;;4.80;98.20;;;;;;5009027;28;20480;-77
2022/12/07 04:44:07;;;;;;;1.63;1.30;;;4.80;98.20;;;;;;5024517;28;20483;-77
2022/12/07 04:46:34;;;;;;;1.60;1.40;;;4.80;98.20;;;;;;5014112;28;21042;-80
2022/12/07 04:49:01;;;;;;;1.67;1.40;;;4.80;98.20;;;;;;5031376;28;20468;-77
2022/12/07 04:51:30;;;;;;;1.63;1.30;;;4.80;98.20;;;;;;5021183;28;20471;-77
2022/12/07 04:53:57;;;;;;;1.60;1.30;;;4.80;98.20;;;;;;5023079;28;20455;-78
2022/12/07 04:56:25;;;;;;;1.60;1.40;;;4.90;98.20;;;;;;5017804;28;20516;-79
2022/12/07 04:58:54;;;;;;;1.70;1.40;;;4.90;98.20;;;;;;5020173;28;20455;-77
2022/12/07 05:01:21;;;;;;;1.70;1.40;;;4.90;98.20;;;;;;5020682;28;20900;-78
2022/12/07 05:03:49;;;;;;;1.63;1.30;;;4.90;98.20;;;;;;5031172;28;20491;-78
2022/12/07 05:06:16;;;;;;;1.70;1.40;;;4.90;98.20;;;;;;5020981;28;20573;-81
2022/12/07 05:08:44;;;;;;;1.60;1.30;;;4.90;98.20;;;;;;5022080;28;20491;-76
2022/12/07 05:11:37;;;;;;;1.70;1.30;;;4.80;98.20;;;;;;5019461;28;20648;-77
2022/12/07 05:14:00;;;;;;;1.70;1.40;;;4.80;98.20;;;;;;5021020;28;20585;-77
2022/12/07 05:16:29;;;;;;;1.60;1.30;;;4.80;98.20;;;;;;5018059;28;20484;-81
2022/12/07 05:18:57;;;;;;;1.93;1.73;;;4.80;98.20;;;;;;5027689;28;20470;-79
2022/12/07 05:21:24;;;;;;;1.63;1.30;;;4.80;98.20;;;;;;5026841;28;20486;-82
2022/12/07 05:23:53;;;;;;;1.63;1.30;;;4.80;98.20;;;;;;5035746;28;20487;-80
2022/12/07 05:26:20;;;;;;;1.67;1.40;;;4.80;98.20;;;;;;5028699;28;20489;-79
2022/12/07 05:28:50;;;;;;;1.60;1.40;;;4.80;98.20;;;;;;5025787;28;20829;-77
2022/12/07 05:31:17;;;;;;;1.70;1.40;;;4.80;98.20;;;;;;5021401;28;20488;-77
2022/12/07 05:33:44;;;;;;;1.63;1.30;;;4.80;98.20;;;;;;5029122;28;20455;-78
2022/12/07 05:36:10;;;;;;;1.70;1.60;;;4.80;98.20;;;;;;5020229;28;21010;-78
2022/12/07 05:38:37;;;;;;;1.63;1.40;;;4.80;98.20;;;;;;5021238;28;20459;-80
2022/12/07 05:41:07;;;;;;;1.67;1.30;;;4.70;98.20;;;;;;5025033;28;20644;-79
2022/12/07 05:43:54;;;;;;;1.70;1.50;;;4.70;98.20;;;;;;5024854;28;20723;-79
2022/12/07 05:46:21;;;;;;;1.67;1.43;;;4.70;98.20;;;;;;5024328;28;20504;-77
2022/12/07 05:48:48;;;;;;;1.67;1.40;;;4.70;98.20;;;;;;5041210;28;20469;-78
2022/12/07 05:51:15;;;;;;;1.70;1.40;;;4.70;98.20;;;;;;5024436;28;21037;-82
2022/12/07 05:53:42;;;;;;;1.60;1.30;;;4.70;98.20;;;;;;5020509;28;20463;-81
2022/12/07 05:56:10;;;;;;;1.67;1.30;;;4.70;98.20;;;;;;5018742;28;20475;-77
2022/12/07 06:01:21;;;;;;;1.70;1.40;;;4.60;98.20;;;;;;5013421;28;20739;-77
2022/12/07 06:03:48;;;;;;;1.67;1.30;;;4.60;98.20;;;;;;5024753;28;20541;-78
2022/12/07 06:06:14;;;;;;;1.67;1.40;;;4.60;98.20;;;;;;5023962;28;20861;-77
2022/12/07 06:08:41;;;;;;;1.60;1.30;;;4.60;98.20;;;;;;5023320;28;20801;-78
2022/12/07 06:13:54;;;;;;;1.67;1.40;;;4.50;98.20;;;;;;5025611;28;20936;-81
2022/12/07 06:16:20;;;;;;;1.70;1.50;;;4.60;98.20;;;;;;5021213;28;20571;-79
2022/12/07 06:18:47;;;;;;;1.63;1.30;;;4.60;98.20;;;;;;5023524;28;20471;-78
2022/12/07 06:21:14;;;;;;;1.67;1.40;;;4.60;98.20;;;;;;5023777;28;20479;-77
2022/12/07 06:23:41;;;;;;;1.70;1.40;;;4.60;98.20;;;;;;5021297;28;20524;-78
2022/12/07 06:26:10;;;;;;;1.70;1.40;;;4.60;98.20;;;;;;5018151;28;20548;-77
2022/12/07 06:28:36;;;;;;;1.70;1.40;;;4.60;98.20;;;;;;5029361;28;20554;-78
2022/12/07 06:31:04;;;;;;;1.60;1.30;;;4.60;98.20;;;;;;5019798;28;20474;-79
2022/12/07 06:33:31;;;;;;;1.63;1.40;;;4.60;98.20;;;;;;5023800;28;20467;-79
2022/12/07 06:35:58;;;;;;;1.60;1.40;;;4.70;98.20;;;;;;5022103;28;20483;-80
2022/12/07 06:38:25;;;;;;;1.67;1.30;;;4.70;98.20;;;;;;5029287;28;20467;-78
2022/12/07 06:40:55;;;;;;;1.60;1.30;;;4.70;98.20;;;;;;5020124;28;20463;-78
2022/12/07 06:43:23;;;;;;;1.63;1.40;;;4.70;98.20;;;;;;5024339;28;20843;-79
2022/12/07 06:45:50;;;;;;;1.67;1.40;;;4.70;98.20;;;;;;5023423;28;20503;-78
2022/12/07 06:48:17;;;;;;;1.60;1.30;;;4.70;98.20;;;;;;5020595;28;20478;-79
2022/12/07 06:50:45;;;;;;;1.60;1.30;;;4.70;98.20;;;;;;5029932;28;20509;-78
2022/12/07 06:53:12;;;;;;;1.60;1.30;;;4.70;98.20;;;;;;5007860;28;20989;-78
2022/12/07 06:55:39;;;;;;;1.60;1.30;;;4.70;98.20;;;;;;5029478;28;21015;-77
2022/12/07 06:58:06;;;;;;;1.67;1.37;;;4.70;98.20;;;;;;5009989;28;20492;-77
2022/12/07 07:00:35;;;;;;;1.70;1.40;;;4.70;98.20;;;;;;5030768;28;20499;-79
2022/12/07 07:03:02;;;;;;;1.70;1.40;;;4.70;98.20;;;;;;5013742;28;20922;-76
2022/12/07 07:05:31;;;;;;;1.60;1.40;;;4.70;98.20;;;;;;5028174;28;20951;-76
2022/12/07 07:07:58;;;;;;;1.70;1.40;;;4.70;98.20;;;;;;5006806;28;20621;-76
2022/12/07 07:10:25;;;;;;;1.70;1.40;;;4.70;98.20;;;;;;5029993;28;20975;-76
2022/12/07 07:12:52;;;;;;;1.63;1.40;;;4.70;98.20;;;;;;5012973;28;20482;-76
2022/12/07 07:15:19;;;;;;;1.70;1.40;;;4.70;98.20;;;;;;5025944;28;20644;-76
2022/12/07 07:17:47;;;;;;;1.70;1.50;;;4.70;98.20;;;;;;5009112;28;20982;-75
2022/12/07 07:20:14;;;;;;;1.60;1.30;;;4.70;98.20;;;;;;5028320;28;20554;-75
2022/12/07 07:22:41;;;;;;;1.70;1.40;;;4.70;98.20;;;;;;5020336;28;21142;-75
2022/12/07 07:25:09;;;;;;;1.67;1.40;;;4.70;98.20;;;;;;5030297;28;20487;-74
2022/12/07 07:27:35;;;;;;;1.70;1.50;;;4.70;98.20;;;;;;5013936;28;20899;-76
2022/12/07 07:30:02;;;;;;;2.63;2.43;;;4.70;98.20;;;;;;5024368;28;20859;-75
2022/12/07 07:32:29;;;;;;;1.60;1.30;;;4.70;98.20;;;;;;5018480;28;20584;-76
2022/12/07 07:34:58;;;;;;;1.60;1.30;;;4.70;98.20;;;;;;5029014;28;20455;-75
2022/12/07 07:37:24;;;;;;;1.70;1.40;;;4.70;98.20;;;;;;5008412;28;20487;-75
2022/12/07 07:39:51;;;;;;;1.67;1.40;;;4.70;98.20;;;;;;5025263;28;20459;-77
2022/12/07 07:42:18;;;;;;;1.70;1.40;;;4.80;98.20;;;;;;5010086;28;20482;-75
2022/12/07 07:44:45;;;;;;;1.70;1.30;;;4.80;98.20;;;;;;5022627;28;20836;-76
2022/12/07 07:47:12;;;;;;;1.70;1.43;;;4.70;98.20;;;;;;5012555;28;20495;-75
2022/12/07 07:49:39;;;;;;;1.67;1.37;;;4.70;98.20;;;;;;5019700;28;20474;-75
2022/12/07 07:52:07;;;;;;;1.60;1.30;;;4.70;98.20;;;;;;5014285;28;20488;-75
2022/12/07 07:54:34;;;;;;;1.67;1.43;;;4.70;98.20;;;;;;5022515;28;20451;-75
2022/12/07 07:57:01;;;;;;;1.60;1.40;;;4.70;98.20;;;;;;5009442;28;20927;-75
2022/12/07 07:59:27;;;;;;;1.70;1.30;;;4.70;98.20;;;;;;5022597;28;20455;-75
2022/12/07 08:01:54;;;;;;;1.70;1.53;;;4.80;98.20;;;;;;5009955;28;20487;-75
2022/12/07 08:04:21;;;;;;;1.70;1.50;;;4.80;98.20;;;;;;5019947;28;20561;-74
2022/12/07 08:06:48;;;;;;;1.67;1.43;;;4.80;98.20;;;;;;5012511;28;20487;-75
2022/12/07 08:09:16;;;;;;;1.60;1.30;;;4.80;98.20;;;;;;5021774;28;20467;-75
2022/12/07 08:11:43;;;;;;;1.70;1.50;;;4.80;98.20;;;;;;5010130;28;20490;-74
2022/12/07 08:14:11;;;;;;;1.67;1.30;;;4.80;98.20;;;;;;5017443;28;20460;-74
2022/12/07 08:16:38;;;;;;;1.70;1.50;;;4.80;98.20;;;;;;5012901;28;20491;-74
2022/12/07 08:19:06;;;;;;;1.70;1.50;;;4.80;98.20;;;;;;5020339;28;20490;-74
2022/12/07 08:21:32;;;;;;;1.60;1.30;;;4.80;98.20;;;;;;5013162;28;20996;-75
2022/12/07 08:23:59;;;;;;;1.60;1.40;;;4.80;98.20;;;;;;5018612;28;20455;-75
2022/12/07 08:26:28;;;;;;;1.60;1.30;;;4.80;98.20;;;;;;5017214;28;20485;-76
2022/12/07 08:28:54;;;;;;;1.60;1.30;;;4.80;98.20;;;;;;5020317;28;20459;-76
2022/12/07 08:31:21;;;;;;;1.70;1.40;;;4.90;98.20;;;;;;5019039;28;20944;-75
2022/12/07 08:33:49;;;;;;;1.70;1.37;;;4.90;98.20;;;;;;5025895;28;20725;-77
2022/12/07 08:36:17;;;;;;;1.70;1.40;;;4.90;98.20;;;;;;5016928;28;21041;-76
2022/12/07 08:38:44;;;;;;;3.00;2.80;;;4.90;98.20;;;;;;5026265;28;20546;-77
2022/12/07 08:41:11;;;;;;;1.60;1.30;;;5.00;98.20;;;;;;5012364;28;20487;-76
2022/12/07 08:43:39;;;;;;;1.60;1.30;;;5.00;98.20;;;;;;5024550;28;20463;-77
2022/12/07 08:46:10;;;;;;;1.60;1.30;;;5.00;98.20;;;;;;5016114;28;20495;-76
2022/12/07 08:48:41;;;;;;;1.70;1.40;;;5.10;98.20;;;;;;5029104;28;20516;-76
2022/12/07 08:51:08;;;;;;;1.60;1.30;;;5.10;98.20;;;;;;5018896;28;20542;-76
2022/12/07 08:53:36;;;;;;;1.70;1.30;;;5.20;98.20;;;;;;5029723;28;20470;-77
2022/12/07 08:56:03;;;;;;;1.70;1.30;;;5.20;98.20;;;;;;5015391;28;20536;-75
2022/12/07 08:58:30;;;;;;;1.63;1.30;;;5.20;98.20;;;;;;5025926;28;20463;-77
2022/12/07 09:00:58;;;;;;;1.63;1.30;;;5.30;98.20;;;;;;5015589;28;20578;-76
2022/12/07 09:03:25;;;;;;;1.70;1.40;;;5.30;98.20;;;;;;5027294;28;21015;-75
2022/12/07 09:05:53;;;;;;;1.60;1.30;;;5.40;98.20;;;;;;5015216;28;20491;-74
2022/12/07 09:08:20;;;;;;;1.70;1.40;;;5.40;98.20;;;;;;5034813;22;20470;-76
2022/12/07 09:10:47;;;;;;;1.63;1.30;;;5.40;98.20;;;;;;5014589;28;20468;-80
2022/12/07 09:13:14;;;;;;;1.60;1.30;;;5.40;98.20;;;;;;5008609;28;20482;-78
2022/12/07 09:15:41;;;;;;;1.63;1.30;;;5.40;98.20;;;;;;5022070;28;20997;-77
2022/12/07 09:18:09;;;;;;;1.60;1.30;;;5.40;98.20;;;;;;5029697;28;20605;-78
2022/12/07 09:20:36;;;;;;;1.63;1.30;;;5.50;98.20;;;;;;5005724;28;20460;-80
2022/12/07 09:23:03;;;;;;;1.77;1.67;;;5.50;98.20;;;;;;5006730;28;20862;-75
2022/12/07 09:25:30;;;;;;;1.67;1.40;;;5.50;98.20;;;;;;5004400;28;20491;-78
2022/12/07 09:27:57;;;;;;;1.60;1.30;;;5.60;98.20;;;;;;5005446;28;20480;-82
2022/12/07 09:30:24;;;;;;;1.60;1.30;;;5.60;98.20;;;;;;5003341;28;20546;-76
2022/12/07 09:32:51;;;;;;;1.60;1.20;;;5.70;98.20;;;;;;5007587;28;20483;-77
2022/12/07 09:35:19;;;;;;;1.63;1.30;;;5.80;98.20;;;;;;5003556;28;20460;-76
2022/12/07 09:37:45;;;;;;;1.67;1.30;;;5.90;98.20;;;;;;5005738;28;20857;-76
2022/12/07 09:40:14;;;;;;;1.60;1.30;;;5.90;98.20;;;;;;5002158;28;21008;-75
2022/12/07 09:42:44;;;;;;;1.60;1.40;;;5.90;98.20;;;;;;5005662;28;20486;-75
2022/12/07 09:45:16;;;;;;;1.70;1.30;;;6.00;98.20;;;;;;4991828;28;20747;-76
2022/12/07 09:47:43;;;;;;;1.60;1.20;;;6.00;98.20;;;;;;5006743;28;20479;-77
2022/12/07 09:50:15;;;;;;;1.70;1.40;;;6.00;98.20;;;;;;5006967;28;21144;-78
2022/12/07 09:52:47;;;;;;;1.60;1.20;;;6.00;98.20;;;;;;5007177;28;20491;-77
2022/12/07 09:55:16;;;;;;;1.60;1.30;;;6.10;98.20;;;;;;4993116;28;20539;-78
2022/12/07 09:57:43;;;;;;;1.60;1.30;;;6.20;98.20;;;;;;5007027;28;20837;-78
2022/12/07 10:00:15;;;;;;;1.60;1.30;;;6.20;98.20;;;;;;5003767;28;20666;-78
2022/12/07 10:02:44;;;;;;;1.63;1.30;;;6.30;98.20;;;;;;5017303;28;20482;-74
2022/12/07 10:05:15;;;;;;;1.70;1.40;;;6.30;98.20;;;;;;5000351;28;20484;-75
2022/12/07 10:07:43;;;;;;;1.70;1.30;;;6.30;98.20;;;;;;5010098;28;20566;-79
2022/12/07 10:10:16;;;;;;;1.70;1.40;;;6.30;98.20;;;;;;5006848;28;20488;-79
2022/12/07 10:12:58;;;;;;;1.70;1.30;;;6.30;98.20;;;;;;5010052;28;20494;-79
2022/12/07 10:15:41;;;;;;;1.60;1.30;;;6.30;98.20;;;;;;5008011;28;20468;-78
2022/12/07 10:18:20;;;;;;;1.70;1.30;;;6.30;98.20;;;;;;5009865;28;20495;-77
2022/12/07 10:20:48;;;;;;;1.70;1.40;;;6.30;98.20;;;;;;5004649;28;20901;-77
2022/12/07 10:23:17;;;;;;;1.63;1.30;;;6.30;98.20;;;;;;4994911;28;20464;-76
2022/12/07 10:25:45;;;;;;;1.60;1.30;;;6.30;98.20;;;;;;5004032;28;20495;-77
2022/12/07 10:28:15;;;;;;;1.63;1.30;;;6.30;98.20;;;;;;5006002;28;20480;-78
2022/12/07 10:30:51;;;;;;;1.60;1.30;;;6.30;98.20;;;;;;4988389;28;20831;-76
2022/12/07 10:33:35;;;;;;;1.63;1.30;;;6.30;98.20;;;;;;4989470;28;20514;-74
2022/12/07 10:36:18;;;;;;;1.70;1.40;;;6.30;98.20;;;;;;4994924;28;20469;-77
2022/12/07 10:38:48;;;;;;;1.67;1.30;;;6.30;98.20;;;;;;5014476;28;20488;-78
2022/12/07 10:41:16;;;;;;;1.60;1.30;;;6.40;98.20;;;;;;4994163;28;20566;-78
2022/12/07 10:43:51;;;;;;;1.63;1.20;;;6.40;98.20;;;;;;5018179;28;20460;-77
2022/12/07 10:46:51;;;;;;;1.60;1.20;;;6.40;98.20;;;;;;4996858;28;20479;-78
2022/12/07 10:49:49;;;;;;;1.73;1.50;;;6.50;98.20;;;;;;5005018;28;20480;-77
2022/12/07 10:52:27;;;;;;;1.67;1.30;;;6.50;98.20;;;;;;4997117;28;20505;-79
2022/12/07 10:55:09;;;;;;;1.63;1.30;;;6.60;98.20;;;;;;5007287;28;20483;-80
2022/12/07 10:57:48;;;;;;;1.70;1.40;;;6.60;98.20;;;;;;5007706;28;20483;-77
2022/12/07 11:00:19;;;;;;;1.60;1.20;;;6.60;98.20;;;;;;4997214;28;20872;-77
2022/12/07 11:03:17;;;;;;;1.70;1.50;;;6.60;98.20;;;;;;5004722;28;20649;-76
2022/12/07 11:05:49;;;;;;;1.67;1.27;;;6.70;98.20;;;;;;4990907;28;20861;-77
2022/12/07 11:08:29;;;;;;;1.60;1.20;;;6.70;98.20;;;;;;4992995;28;20487;-76
2022/12/07 11:11:07;;;;;;;1.60;1.20;;;6.70;98.20;;;;;;4992094;28;20499;-74
2022/12/07 11:13:43;;;;;;;1.67;1.20;;;6.70;98.20;;;;;;5017085;28;20469;-76
2022/12/07 11:16:24;;;;;;;1.60;1.30;;;6.70;98.20;;;;;;4993786;28;20500;-76
2022/12/07 11:19:05;;;;;;;1.70;1.40;;;6.70;98.20;;;;;;5012661;28;20838;-77
2022/12/07 11:21:42;;;;;;;1.70;1.30;;;6.80;98.20;;;;;;4986591;28;20895;-75
2022/12/07 11:24:15;;;;;;;1.67;1.27;;;6.90;98.20;;;;;;5010918;28;20804;-76
2022/12/07 11:27:10;;;;;;;1.67;1.37;;;6.90;98.20;;;;;;4992296;28;20483;-77
2022/12/07 11:29:54;;;;;;;1.60;1.30;;;6.90;98.20;;;;;;4995514;28;20492;-78
2022/12/07 11:32:39;;;;;;;1.60;1.20;;;6.90;98.20;;;;;;5002666;28;20478;-76
2022/12/07 11:35:11;;;;;;;1.63;1.30;;;6.90;98.20;;;;;;5002602;28;20565;-77
2022/12/07 11:37:41;;;;;;;1.67;1.27;;;6.90;98.20;;;;;;5007142;28;20505;-78
2022/12/07 11:40:19;;;;;;;1.70;1.60;;;6.90;98.20;;;;;;5003594;28;20556;-76
2022/12/07 11:42:52;;;;;;;1.70;1.30;;;6.90;98.20;;;;;;5007288;28;20475;-79
2022/12/07 11:45:24;;;;;;;1.63;1.27;;;7.00;98.20;;;;;;4999186;28;20499;-78
2022/12/07 11:47:56;;;;;;;1.60;1.23;;;7.10;98.20;;;;;;5007024;28;20479;-79
2022/12/07 11:50:31;;;;;;;1.63;1.30;;;7.20;98.20;;;;;;4991185;28;20477;-78
2022/12/07 11:53:01;;;;;;;1.60;1.20;;;7.20;98.20;;;;;;4985966;28;20888;-76
2022/12/07 11:55:33;;;;;;;2.07;1.87;;;7.30;98.20;;;;;;4986585;28;20537;-76
2022/12/07 11:58:05;;;;;;;1.60;1.20;;;7.40;98.20;;;;;;5008974;28;20479;-75
2022/12/07 12:00:33;;;;;;;1.60;1.20;;;7.50;98.20;;;;;;4987779;28;20485;-76
2022/12/07 12:03:06;;;;;;;1.70;1.23;;;7.60;98.20;;;;;;5007925;28;20784;-76
2022/12/07 12:05:33;;;;;;;1.60;1.20;;;7.70;98.20;;;;;;4989436;28;20493;-77
2022/12/07 12:08:07;;;;;;;1.63;1.20;;;7.80;98.20;;;;;;4987644;28;20828;-76
2022/12/07 12:10:46;;;;;;;1.60;1.20;;;7.80;98.20;;;;;;4989823;28;20492;-76
2022/12/07 12:13:36;;;;;;;1.67;1.20;;;7.90;98.20;;;;;;5010439;28;20475;-75
2022/12/07 12:16:35;;;;;;;1.60;1.20;;;7.90;98.20;;;;;;4983622;28;20461;-75
2022/12/07 12:19:26;;;;;;;1.60;1.20;;;8.00;98.20;;;;;;5005738;28;20492;-75
2022/12/07 12:21:58;;;;;;;1.60;1.17;;;8.00;98.20;;;;;;4992791;28;20475;-76
2022/12/07 12:24:29;;;;;;;1.60;1.20;;;8.00;98.20;;;;;;4999134;28;20461;-78
2022/12/07 12:27:00;;;;;;;1.63;1.30;;;8.00;98.20;;;;;;4993980;28;20928;-75
2022/12/07 12:29:33;;;;;;;1.70;1.50;;;7.90;98.20;;;;;;4997601;28;20484;-77
2022/12/07 12:32:13;;;;;;;1.70;1.30;;;7.80;98.20;;;;;;4995812;28;20920;-77
2022/12/07 12:34:42;;;;;;;1.63;1.20;;;7.80;98.20;;;;;;4994888;28;20832;-77
2022/12/07 12:37:40;;;;;;;1.60;1.20;;;7.70;98.20;;;;;;4993116;28;20486;-76
2022/12/07 12:40:44;;;;;;;1.63;1.20;;;7.70;98.20;;;;;;4989959;28;20483;-76
2022/12/07 12:43:49;;;;;;;1.60;1.30;;;7.70;98.20;;;;;;4993199;28;20626;-76
2022/12/07 12:46:54;;;;;;;1.70;1.40;;;7.90;98.20;;;;;;4988304;28;20516;-76
2022/12/07 12:50:04;;;;;;;1.70;1.20;;;8.10;98.20;;;;;;4988472;28;20469;-76
2022/12/07 12:53:01;;;;;;;1.80;1.60;;;8.30;98.20;;;;;;5002404;28;20550;-75
2022/12/07 12:56:18;;;;;;;1.60;1.20;;;8.60;98.20;;;;;;4979129;28;21234;-75
2022/12/07 12:58:48;;;;;;;1.67;1.23;;;8.60;98.20;;;;;;4985997;28;20584;-75
2022/12/07 13:01:47;;;;;;;1.60;1.20;;;8.60;98.20;;;;;;4979683;28;20582;-78
2022/12/07 13:04:28;;;;;;;1.63;1.30;;;8.40;98.20;;;;;;4998206;28;20469;-74
2022/12/07 13:06:54;;;;;;;1.63;1.20;;;8.40;98.20;;;;;;4990544;28;20485;-75
2022/12/07 13:09:25;;;;;;;1.60;1.20;;;8.30;98.20;;;;;;4995124;28;21020;-75
2022/12/07 13:12:00;;;;;;;1.60;1.20;;;8.20;98.20;;;;;;4990590;28;20479;-75
2022/12/07 13:14:54;;;;;;;1.70;1.30;;;8.10;98.20;;;;;;4998649;28;20464;-74
2022/12/07 13:18:09;;;;;;;1.67;1.27;;;8.00;98.20;;;;;;4998996;28;20482;-76
2022/12/07 13:20:53;;;;;;;1.60;1.27;;;8.00;98.20;;;;;;4923089;29;20495;-76
2022/12/07 13:23:40;;;;;;;1.70;1.30;;;7.90;98.20;;;;;;4963854;28;20839;-76
2022/12/07 13:26:33;;;;;;;1.67;1.20;;;7.90;98.20;;;;;;4979083;28;20497;-76
2022/12/07 13:29:10;;;;;;;1.67;1.30;;;7.70;98.20;;;;;;5005451;28;20502;-77